createdAt,value
2023-01-04T00:02:01.299Z,12.50
2023-01-04T00:04:28.363Z,15.32
2023-01-04T00:06:56.797Z,12.20
2023-01-04T00:09:23.958Z,12.20
2023-01-04T00:11:51.065Z,11.70
2023-01-04T00:14:19.065Z,13.00
2023-01-04T00:16:46.275Z,13.82
2023-01-04T00:19:13.428Z,14.80
2023-01-04T00:21:40.571Z,13.40
2023-01-04T00:24:08.987Z,13.10
2023-01-04T00:26:36.241Z,12.60
2023-01-04T00:29:05.538Z,13.68
2023-01-04T00:31:33.158Z,12.07
2023-01-04T00:34:01.625Z,14.43
2023-01-04T00:36:29.084Z,14.70
2023-01-04T00:39:12.402Z,14.80
2023-01-04T00:44:27.921Z,17.40
2023-01-04T00:46:55.066Z,16.88
2023-01-04T00:49:22.182Z,16.08
2023-01-04T00:51:49.304Z,15.23
2023-01-04T00:54:16.577Z,13.85
2023-01-04T00:56:44.200Z,15.03
2023-01-04T00:59:12.754Z,16.38
2023-01-04T01:01:40.429Z,14.87
2023-01-04T01:04:07.927Z,15.20
2023-01-04T01:06:35.125Z,13.50
2023-01-04T01:09:02.569Z,11.85
2023-01-04T01:11:30.500Z,11.55
2023-01-04T01:13:58.204Z,12.32
2023-01-04T01:16:52.876Z,14.63
2023-01-04T01:19:13.863Z,12.10
2023-01-04T01:21:41.177Z,13.02
2023-01-04T01:24:09.583Z,15.63
2023-01-04T01:26:36.660Z,16.58
2023-01-04T01:29:03.765Z,16.02
2023-01-04T01:31:31.081Z,17.45
2023-01-04T01:34:01.876Z,14.75
2023-01-04T01:36:29.114Z,15.55
2023-01-04T01:38:56.837Z,11.13
2023-01-04T01:41:28.182Z,12.90
2023-01-04T01:43:58.496Z,14.38
2023-01-04T01:46:37.260Z,15.38
2023-01-04T01:49:07.789Z,12.77
2023-01-04T01:51:35.129Z,14.13
2023-01-04T01:54:04.781Z,14.98
2023-01-04T01:56:34.265Z,12.82
2023-01-04T01:59:01.407Z,13.73
2023-01-04T02:01:29.261Z,13.32
2023-01-04T02:03:56.898Z,15.30
2023-01-04T02:06:30.515Z,14.45
2023-01-04T02:08:57.712Z,15.93
2023-01-04T02:11:24.833Z,15.77
2023-01-04T02:14:11.882Z,12.80
2023-01-04T02:16:53.921Z,12.68
2023-01-04T02:19:20.979Z,15.48
2023-01-04T02:22:08.007Z,14.68
2023-01-04T02:24:55.016Z,12.37
2023-01-04T02:27:25.356Z,16.20
2023-01-04T02:29:53.506Z,13.50
2023-01-04T02:32:21.568Z,13.35
2023-01-04T02:34:54.771Z,15.57
2023-01-04T02:37:45.170Z,13.82
2023-01-04T02:40:32.135Z,16.10
2023-01-04T02:43:23.833Z,14.93
2023-01-04T02:45:54.764Z,14.48
2023-01-04T02:48:41.733Z,11.65
2023-01-04T02:51:28.823Z,14.57
2023-01-04T02:53:57.181Z,14.45
2023-01-04T02:56:44.147Z,17.98
2023-01-04T02:59:18.592Z,17.23
2023-01-04T03:02:12.519Z,18.13
2023-01-04T03:05:19.521Z,14.55
2023-01-04T03:07:54.146Z,18.83
2023-01-04T03:10:32.259Z,16.73
2023-01-04T03:13:10.794Z,17.03
2023-01-04T03:15:39.461Z,17.58
2023-01-04T03:18:10.911Z,15.43
2023-01-04T03:20:38.018Z,17.48
2023-01-04T03:23:27.899Z,16.83
2023-01-04T03:26:20.216Z,17.05
2023-01-04T03:29:08.548Z,17.08
2023-01-04T03:31:58.695Z,17.38
2023-01-04T03:34:45.757Z,17.40
2023-01-04T03:37:19.517Z,18.55
2023-01-04T03:40:19.035Z,19.70
2023-01-04T03:43:09.565Z,18.95
2023-01-04T03:46:07.730Z,18.73
2023-01-04T03:48:37.826Z,18.98
2023-01-04T03:51:09.980Z,18.40
2023-01-04T03:53:40.135Z,17.95
2023-01-04T03:56:08.163Z,20.50
2023-01-04T03:58:35.733Z,21.02
2023-01-04T04:01:04.993Z,20.25
2023-01-04T04:03:52.171Z,20.90
2023-01-04T04:06:39.164Z,18.98
2023-01-04T04:09:06.301Z,21.40
2023-01-04T04:11:34.409Z,19.15
2023-01-04T04:14:01.543Z,20.08
2023-01-04T04:16:29.148Z,19.40
2023-01-04T04:18:56.358Z,18.63
2023-01-04T04:21:23.484Z,19.45
2023-01-04T04:23:50.619Z,19.92
2023-01-04T04:26:17.894Z,20.67
2023-01-04T04:28:45.034Z,20.27
2023-01-04T04:31:12.618Z,19.75
2023-01-04T04:33:40.097Z,20.53
2023-01-04T04:36:07.808Z,20.80
2023-01-04T04:38:35.558Z,18.67
2023-01-04T04:41:30.513Z,19.15
2023-01-04T04:43:58.276Z,18.73
2023-01-04T04:46:25.461Z,18.93
2023-01-04T04:48:52.595Z,19.02
2023-01-04T04:51:19.759Z,17.05
2023-01-04T04:53:46.815Z,16.92
2023-01-04T04:56:13.919Z,17.80
2023-01-04T04:58:41.231Z,17.70
2023-01-04T05:01:08.626Z,17.80
2023-01-04T05:03:36.003Z,17.80
2023-01-04T05:06:03.295Z,15.85
2023-01-04T05:08:30.561Z,14.73
2023-01-04T05:10:57.666Z,13.45
2023-01-04T05:13:24.759Z,13.47
2023-01-04T05:15:52.825Z,11.23
2023-01-04T05:18:21.681Z,12.90
2023-01-04T05:20:49.214Z,13.05
2023-01-04T05:23:17.658Z,14.65
2023-01-04T05:25:44.873Z,13.45
2023-01-04T05:28:11.990Z,12.85
2023-01-04T05:30:55.674Z,12.18
2023-01-04T05:33:25.218Z,14.10
2023-01-04T05:35:53.030Z,12.55
2023-01-04T05:38:20.877Z,13.00
2023-01-04T05:40:48.346Z,14.25
2023-01-04T05:43:16.115Z,12.48
2023-01-04T05:45:45.005Z,12.95
2023-01-04T05:48:12.130Z,12.52
2023-01-04T05:50:39.150Z,12.05
2023-01-04T05:53:06.921Z,13.43
2023-01-04T05:55:34.236Z,11.15
2023-01-04T05:58:01.374Z,11.95
2023-01-04T06:00:28.589Z,13.20
2023-01-04T06:02:57.061Z,12.50
2023-01-04T06:05:25.104Z,12.23
2023-01-04T06:07:52.531Z,13.10
2023-01-04T06:10:19.760Z,13.60
2023-01-04T06:12:47.254Z,14.18
2023-01-04T06:15:14.748Z,11.68
2023-01-04T06:17:41.874Z,12.40
2023-01-04T06:20:10.593Z,12.80
2023-01-04T06:22:38.411Z,12.65
2023-01-04T06:25:05.833Z,13.82
2023-01-04T06:27:32.910Z,13.85
2023-01-04T06:29:59.987Z,13.02
2023-01-04T06:32:27.356Z,13.93
2023-01-04T06:34:54.441Z,15.75
2023-01-04T06:37:21.669Z,15.50
2023-01-04T06:39:48.780Z,14.68
2023-01-04T06:42:35.804Z,15.15
2023-01-04T06:45:03.053Z,15.68
2023-01-04T06:47:30.109Z,18.92
2023-01-04T06:49:57.194Z,18.98
2023-01-04T06:52:24.356Z,20.50
2023-01-04T06:54:51.425Z,17.23
2023-01-04T06:57:18.553Z,16.60
2023-01-04T06:59:45.702Z,14.93
2023-01-04T07:02:16.246Z,16.08
2023-01-04T07:04:44.043Z,15.52
2023-01-04T07:07:11.325Z,18.00
2023-01-04T07:09:38.814Z,15.73
2023-01-04T07:12:06.132Z,15.95
2023-01-04T07:14:33.250Z,14.43
2023-01-04T07:17:00.362Z,14.23
2023-01-04T07:19:27.464Z,13.73
2023-01-04T07:21:54.605Z,15.07
2023-01-04T07:24:26.329Z,13.50
2023-01-04T07:26:56.870Z,11.27
2023-01-04T07:29:24.096Z,14.38
2023-01-04T07:31:52.112Z,12.77
2023-01-04T07:34:20.097Z,12.55
2023-01-04T07:36:47.691Z,13.73
2023-01-04T07:39:15.117Z,13.40
2023-01-04T07:41:42.605Z,12.68
2023-01-04T07:44:10.847Z,11.23
2023-01-04T07:46:38.042Z,11.23
2023-01-04T07:49:05.459Z,9.48
2023-01-04T07:51:33.084Z,9.00
2023-01-04T07:54:00.568Z,10.25
2023-01-04T07:56:27.650Z,8.73
2023-01-04T07:58:57.499Z,10.07
2023-01-04T08:01:25.309Z,9.20
2023-01-04T08:03:52.943Z,8.73
2023-01-04T08:06:21.190Z,7.75
2023-01-04T08:08:48.327Z,8.05
2023-01-04T08:11:17.218Z,7.55
2023-01-04T08:13:44.657Z,7.47
2023-01-04T08:16:19.592Z,6.88
2023-01-04T08:18:46.707Z,6.78
2023-01-04T08:21:13.856Z,6.63
2023-01-04T08:23:40.963Z,6.38
2023-01-04T08:26:09.621Z,7.00
2023-01-04T08:28:37.025Z,6.40
2023-01-04T08:31:05.551Z,5.63
2023-01-04T08:33:32.878Z,6.03
2023-01-04T08:36:26.265Z,5.78
2023-01-04T08:38:59.975Z,14.85
2023-01-04T08:41:56.640Z,9.27
2023-01-04T08:44:14.958Z,5.73
2023-01-04T08:46:42.176Z,5.40
2023-01-04T08:49:09.353Z,5.00
2023-01-04T08:51:36.441Z,5.15
2023-01-04T08:54:03.572Z,5.90
2023-01-04T08:56:30.707Z,5.63
2023-01-04T08:58:57.815Z,5.47
2023-01-04T09:01:24.977Z,5.60
2023-01-04T09:03:52.223Z,5.27
2023-01-04T09:06:19.301Z,5.43
2023-01-04T09:08:46.289Z,4.05
2023-01-04T09:11:15.616Z,4.20
2023-01-04T09:13:43.039Z,4.45
2023-01-04T09:16:12.639Z,4.03
2023-01-04T09:18:40.035Z,4.55
2023-01-04T09:21:08.023Z,4.25
2023-01-04T09:23:36.306Z,5.20
2023-01-04T09:26:09.513Z,3.85
2023-01-04T09:28:37.020Z,4.50
2023-01-04T09:31:06.182Z,3.33
2023-01-04T09:34:11.626Z,3.23
2023-01-04T09:36:20.785Z,3.22
2023-01-04T09:38:49.153Z,3.15
2023-01-04T09:41:21.640Z,3.13
2023-01-04T09:43:50.513Z,2.40
2023-01-04T09:46:24.362Z,2.45
2023-01-04T09:48:53.934Z,2.40
2023-01-04T09:51:21.949Z,2.70
2023-01-04T09:53:55.858Z,4.60
2023-01-04T09:56:27.345Z,3.78
2023-01-04T09:58:55.467Z,4.00
2023-01-04T10:01:25.052Z,3.33
2023-01-04T10:03:59.571Z,4.90
2023-01-04T10:06:26.807Z,3.30
2023-01-04T10:08:54.497Z,3.15
2023-01-04T10:11:41.510Z,2.13
2023-01-04T10:14:24.169Z,2.60
2023-01-04T10:17:12.830Z,1.75
2023-01-04T10:22:38.965Z,2.28
2023-01-04T10:25:21.696Z,1.42
2023-01-04T10:27:58.792Z,1.23
2023-01-04T10:30:25.968Z,2.05
2023-01-04T10:33:02.633Z,1.20
2023-01-04T10:35:30.419Z,1.20
2023-01-04T10:37:59.694Z,1.70
2023-01-04T10:40:28.665Z,1.77
2023-01-04T10:43:01.000Z,1.25
2023-01-04T10:45:35.163Z,1.27
2023-01-04T10:48:08.490Z,1.88
2023-01-04T10:50:45.335Z,1.65
2023-01-04T10:53:24.173Z,2.10
2023-01-04T10:56:25.047Z,1.02
2023-01-04T10:58:50.236Z,1.15
2023-01-04T11:01:25.151Z,2.08
2023-01-04T11:03:53.367Z,1.40
2023-01-04T11:06:24.397Z,0.98
2023-01-04T11:08:54.127Z,1.38
2023-01-04T11:11:31.440Z,1.20
2023-01-04T11:13:58.496Z,1.45
2023-01-04T11:16:25.622Z,1.38
2023-01-04T11:18:52.787Z,0.80
2023-01-04T11:21:22.241Z,1.25
2023-01-04T11:23:49.264Z,1.35
2023-01-04T11:26:20.696Z,1.10
2023-01-04T11:28:50.345Z,1.60
2023-01-04T11:31:22.487Z,1.80
2023-01-04T11:33:51.915Z,1.40
2023-01-04T11:36:33.310Z,1.10
2023-01-04T11:39:00.624Z,1.45
2023-01-04T11:41:27.784Z,2.40
2023-01-04T11:43:59.447Z,1.20
2023-01-04T11:46:27.122Z,1.30
2023-01-04T11:48:54.615Z,1.67
2023-01-04T11:51:26.302Z,2.28
2023-01-04T11:54:13.329Z,1.10
2023-01-04T11:56:41.316Z,1.53
2023-01-04T11:59:09.421Z,0.88
2023-01-04T12:01:37.869Z,1.30
2023-01-04T12:04:10.451Z,1.75
2023-01-04T12:06:37.558Z,1.07
2023-01-04T12:09:05.381Z,3.10
2023-01-04T12:11:35.644Z,1.02
2023-01-04T12:14:03.465Z,2.30
2023-01-04T12:16:50.689Z,1.67
2023-01-04T12:19:18.757Z,1.70
2023-01-04T12:21:48.065Z,1.30
2023-01-04T12:24:18.569Z,2.10
2023-01-04T12:26:45.981Z,2.50
2023-01-04T12:29:32.994Z,1.60
2023-01-04T12:32:07.565Z,1.08
2023-01-04T12:34:34.728Z,1.87
2023-01-04T12:37:05.655Z,1.27
2023-01-04T12:39:43.440Z,2.10
2023-01-04T12:42:17.396Z,1.13
2023-01-04T12:44:47.642Z,1.27
2023-01-04T12:47:41.902Z,1.60
2023-01-04T12:50:11.775Z,4.35
2023-01-04T12:53:01.912Z,2.40
2023-01-04T12:55:33.329Z,1.30
2023-01-04T12:58:00.509Z,1.45
2023-01-04T13:00:47.505Z,2.50
2023-01-04T13:03:16.231Z,1.13
2023-01-04T13:06:07.094Z,2.05
2023-01-04T13:08:42.129Z,1.15
2023-01-04T13:11:24.696Z,0.98
2023-01-04T13:13:57.175Z,1.90
2023-01-04T13:16:28.623Z,3.20
2023-01-04T13:18:58.341Z,3.50
2023-01-04T13:21:42.219Z,3.90
2023-01-04T13:24:09.224Z,2.97
2023-01-04T13:26:39.022Z,1.63
2023-01-04T13:29:22.976Z,1.90
2023-01-04T13:32:06.750Z,2.55
2023-01-04T13:34:36.843Z,2.83
2023-01-04T13:37:08.274Z,1.67
2023-01-04T13:39:36.539Z,2.40
2023-01-04T13:42:04.396Z,2.50
2023-01-04T13:45:00.101Z,1.10
2023-01-04T13:47:18.896Z,2.40
2023-01-04T13:49:46.102Z,1.98
2023-01-04T13:52:48.329Z,2.45
2023-01-04T13:55:12.026Z,1.35
2023-01-04T13:57:39.135Z,1.40
2023-01-04T14:00:07.135Z,1.20
2023-01-04T14:02:36.145Z,1.10
2023-01-04T14:05:03.456Z,1.80
2023-01-04T14:07:30.677Z,1.20
2023-01-04T14:09:59.456Z,1.23
2023-01-04T14:12:28.561Z,1.17
2023-01-04T14:14:58.436Z,1.00
2023-01-04T14:17:29.266Z,0.90
2023-01-04T14:19:58.023Z,1.85
2023-01-04T14:22:26.233Z,1.08
2023-01-04T14:25:10.936Z,2.00
2023-01-04T14:27:39.572Z,1.20
2023-01-04T14:30:22.157Z,1.67
2023-01-04T14:33:09.145Z,2.40
2023-01-04T14:35:39.915Z,1.90
2023-01-04T14:38:16.020Z,1.20
2023-01-04T14:40:43.298Z,1.30
2023-01-04T14:43:30.340Z,1.25
2023-01-04T14:45:57.453Z,1.15
2023-01-04T14:48:24.548Z,1.75
2023-01-04T14:50:51.943Z,1.40
2023-01-04T14:53:21.233Z,1.10
2023-01-04T14:55:48.460Z,0.93
2023-01-04T14:58:15.491Z,1.05
2023-01-04T15:00:42.585Z,1.63
2023-01-04T15:03:10.121Z,1.30
2023-01-04T15:05:38.035Z,1.73
2023-01-04T15:08:05.341Z,1.35
2023-01-04T15:10:32.413Z,1.63
2023-01-04T15:13:00.702Z,1.90
2023-01-04T15:15:28.014Z,2.20
2023-01-04T15:17:55.148Z,2.53
2023-01-04T15:20:22.297Z,3.55
2023-01-04T15:22:49.440Z,7.70
2023-01-04T15:25:16.466Z,2.92
2023-01-04T15:27:43.741Z,2.85
2023-01-04T15:30:11.498Z,4.18
2023-01-04T15:32:38.951Z,2.90
2023-01-04T15:35:06.357Z,3.63
2023-01-04T15:37:33.649Z,3.60
2023-01-04T15:40:03.342Z,3.03
2023-01-04T15:42:50.729Z,3.50
2023-01-04T15:45:17.907Z,5.00
2023-01-04T15:47:44.964Z,3.33
2023-01-04T15:50:12.026Z,3.55
2023-01-04T15:52:39.101Z,4.95
2023-01-04T15:55:06.350Z,2.90
2023-01-04T15:57:35.342Z,3.30
2023-01-04T16:00:06.047Z,3.00
2023-01-04T16:02:33.590Z,2.63
2023-01-04T16:05:00.808Z,2.05
2023-01-04T16:07:34.204Z,2.63
2023-01-04T16:10:03.258Z,1.45
2023-01-04T16:12:49.883Z,0.43
2023-01-04T16:15:21.977Z,0.10
2023-01-04T16:17:49.501Z,0.20
2023-01-04T16:20:17.240Z,0.30
2023-01-04T16:22:44.351Z,0.00
2023-01-04T16:25:12.772Z,0.05
2023-01-04T16:27:40.251Z,0.30
2023-01-04T16:30:09.509Z,0.22
2023-01-04T16:32:37.187Z,0.60
2023-01-04T16:35:04.451Z,0.20
2023-01-04T16:37:31.624Z,0.50
2023-01-04T16:40:07.154Z,0.20
2023-01-04T16:42:34.935Z,0.13
2023-01-04T16:45:02.006Z,0.90
2023-01-04T16:47:29.122Z,0.32
2023-01-04T16:49:56.294Z,0.20
2023-01-04T16:52:27.070Z,0.22
2023-01-04T16:54:54.245Z,0.30
2023-01-04T16:57:21.332Z,0.20
2023-01-04T16:59:48.524Z,0.10
2023-01-04T17:02:15.696Z,0.32
2023-01-04T17:04:43.012Z,0.50
2023-01-04T17:07:10.125Z,0.40
2023-01-04T17:09:41.001Z,0.20
2023-01-04T17:15:23.568Z,0.50
2023-01-04T17:17:43.785Z,0.30
2023-01-04T17:20:12.133Z,0.20
2023-01-04T17:22:40.351Z,0.40
2023-01-04T17:25:07.862Z,0.10
2023-01-04T17:27:35.549Z,0.13
2023-01-04T17:30:02.693Z,0.40
2023-01-04T17:32:29.851Z,0.30
2023-01-04T17:34:58.041Z,0.40
2023-01-04T17:37:25.613Z,0.63
2023-01-04T17:39:52.822Z,0.10
2023-01-04T17:42:19.994Z,0.65
2023-01-04T17:44:49.388Z,0.10
2023-01-04T17:47:16.498Z,0.13
2023-01-04T17:49:43.666Z,0.10
2023-01-04T17:52:13.676Z,0.10
2023-01-04T17:54:43.634Z,0.60
2023-01-04T17:57:10.713Z,0.10
2023-01-04T17:59:37.843Z,0.20
2023-01-04T18:02:05.065Z,0.20
2023-01-04T18:04:32.274Z,0.10
2023-01-04T18:06:59.393Z,0.10
2023-01-04T18:09:27.183Z,0.05
2023-01-04T18:11:54.386Z,0.05
2023-01-04T18:14:22.272Z,0.10
2023-01-04T18:16:57.464Z,0.10
2023-01-04T18:19:27.457Z,0.70
2023-01-04T18:21:54.819Z,0.08
2023-01-04T18:24:38.949Z,0.20
2023-01-04T18:27:24.561Z,0.20
2023-01-04T18:29:53.550Z,0.20
2023-01-04T18:32:21.174Z,0.20
2023-01-04T18:34:48.293Z,0.30
2023-01-04T18:37:16.059Z,0.20
2023-01-04T18:39:43.401Z,0.20
2023-01-04T18:42:10.441Z,0.32
2023-01-04T18:44:43.840Z,0.10
2023-01-04T18:47:13.032Z,0.20
2023-01-04T18:49:40.170Z,0.20
2023-01-04T18:52:07.326Z,0.10
2023-01-04T18:54:34.426Z,0.20
2023-01-04T18:57:01.804Z,0.20
2023-01-04T18:59:29.440Z,0.10
2023-01-04T19:02:01.185Z,0.20
2023-01-04T19:04:30.033Z,0.20
2023-01-04T19:06:57.230Z,0.40
2023-01-04T19:09:24.308Z,0.50
2023-01-04T19:11:51.561Z,0.20
2023-01-04T19:14:18.838Z,0.40
2023-01-04T19:16:46.014Z,0.32
2023-01-04T19:19:13.295Z,0.17
2023-01-04T19:21:40.415Z,0.43
2023-01-04T19:24:07.665Z,1.15
2023-01-04T19:26:34.741Z,1.00
2023-01-04T19:29:01.942Z,0.50
2023-01-04T19:31:29.074Z,0.30
2023-01-04T19:33:56.201Z,2.60
2023-01-04T19:36:23.656Z,1.05
2023-01-04T19:38:50.765Z,0.35
2023-01-04T19:41:21.113Z,0.20
2023-01-04T19:43:48.397Z,1.00
2023-01-04T19:46:15.852Z,0.10
2023-01-04T19:48:43.332Z,0.25
2023-01-04T19:51:12.933Z,6.05
2023-01-04T19:53:40.705Z,5.17
2023-01-04T19:56:08.480Z,2.78
2023-01-04T19:58:36.984Z,2.10
2023-01-04T20:01:05.621Z,1.42
2023-01-04T20:03:32.820Z,1.95
2023-01-04T20:06:03.971Z,1.70
2023-01-04T20:08:31.254Z,1.90
2023-01-04T20:10:59.294Z,2.30
2023-01-04T20:13:27.782Z,1.50
2023-01-04T20:15:55.291Z,1.35
2023-01-04T20:18:23.938Z,1.30
2023-01-04T20:20:52.209Z,1.50
2023-01-04T20:23:21.534Z,1.30
2023-01-04T20:25:49.514Z,1.45
2023-01-04T20:28:17.621Z,2.00
2023-01-04T20:30:44.759Z,2.70
2023-01-04T20:33:12.159Z,3.25
2023-01-04T20:35:42.335Z,3.50
2023-01-04T20:38:10.041Z,3.15
2023-01-04T20:40:37.604Z,2.30
2023-01-04T20:43:24.823Z,1.45
2023-01-04T20:45:52.029Z,1.40
2023-01-04T20:48:19.312Z,1.80
2023-01-04T20:50:46.457Z,1.20
2023-01-04T20:53:13.842Z,2.13
2023-01-04T20:55:41.617Z,1.25
2023-01-04T20:58:09.084Z,2.10
2023-01-04T21:00:39.781Z,1.50
2023-01-04T21:03:07.756Z,1.83
2023-01-04T21:05:36.850Z,1.98
2023-01-04T21:08:04.440Z,1.75
2023-01-04T21:10:31.654Z,1.13
2023-01-04T21:12:58.740Z,2.63
2023-01-04T21:15:25.965Z,1.27
2023-01-04T21:17:53.125Z,0.82
2023-01-04T21:20:21.598Z,1.10
2023-01-04T21:22:48.739Z,1.70
2023-01-04T21:25:15.860Z,1.75
2023-01-04T21:27:43.012Z,1.80
2023-01-04T21:30:10.323Z,1.93
2023-01-04T21:32:37.520Z,1.80
2023-01-04T21:35:05.024Z,1.40
2023-01-04T21:37:32.191Z,1.30
2023-01-04T21:39:59.337Z,1.30
2023-01-04T21:42:26.460Z,1.30
2023-01-04T21:44:53.532Z,1.67
2023-01-04T21:47:20.685Z,1.95
2023-01-04T21:49:47.738Z,1.73
2023-01-04T21:52:14.882Z,1.40
2023-01-04T21:54:42.020Z,1.67
2023-01-04T21:57:09.188Z,1.58
2023-01-04T21:59:36.525Z,2.15
2023-01-04T22:02:04.961Z,1.30
2023-01-04T22:04:32.603Z,1.10
2023-01-04T22:06:59.815Z,1.40
2023-01-04T22:09:26.959Z,1.70
2023-01-04T22:11:54.053Z,1.40
2023-01-04T22:14:21.246Z,1.45
2023-01-04T22:16:48.355Z,1.67
2023-01-04T22:19:15.703Z,1.60
2023-01-04T22:21:43.206Z,1.40
2023-01-04T22:24:12.299Z,1.70
2023-01-04T22:26:40.021Z,1.50
2023-01-04T22:29:07.503Z,1.45
2023-01-04T22:31:34.750Z,1.48
2023-01-04T22:34:02.015Z,0.90
2023-01-04T22:36:29.127Z,1.67
2023-01-04T22:38:57.019Z,1.33
2023-01-04T22:41:25.837Z,1.20
2023-01-04T22:43:54.791Z,0.90
2023-01-04T22:46:21.891Z,2.00
2023-01-04T22:48:49.028Z,1.35
2023-01-04T22:51:16.955Z,1.90
2023-01-04T22:53:44.657Z,1.40
2023-01-04T22:56:22.064Z,1.77
2023-01-04T22:58:53.436Z,1.13
2023-01-04T23:01:21.901Z,1.95
2023-01-04T23:03:49.254Z,1.40
2023-01-04T23:06:16.440Z,1.20
2023-01-04T23:08:43.557Z,1.40
2023-01-04T23:11:12.918Z,1.30
2023-01-04T23:13:40.261Z,1.05
2023-01-04T23:16:09.453Z,1.20
2023-01-04T23:18:37.175Z,1.08
2023-01-04T23:21:04.580Z,1.70
2023-01-04T23:23:32.140Z,1.10
2023-01-04T23:26:04.346Z,1.00
2023-01-04T23:28:31.484Z,0.80
2023-01-04T23:31:01.777Z,1.30
2023-01-04T23:33:35.525Z,2.25
2023-01-04T23:36:07.857Z,1.00
2023-01-04T23:38:35.023Z,1.30
2023-01-04T23:41:02.210Z,1.20
2023-01-04T23:43:29.385Z,1.27
2023-01-04T23:45:56.514Z,0.90
2023-01-04T23:48:23.755Z,1.80
2023-01-04T23:50:54.875Z,1.40
2023-01-04T23:53:22.031Z,1.15
2023-01-04T23:55:55.066Z,0.90
2023-01-04T23:58:22.182Z,1.00
